sensor_id;sensor_type;location;lat;lon;timestamp;pressure;altitude;pressure_sealevel;temperature;humidity
4346;BME280;2186;49.866;7.986;2023-12-20T00:00:59;100284.16;;;6.71;100.00
4346;BME280;2186;49.866;7.986;2023-12-20T00:03:26;100285.88;;;6.77;100.00
4346;BME280;2186;49.866;7.986;2023-12-20T00:05:52;100289.31;;;6.82;100.00
4346;BME280;2186;49.866;7.986;2023-12-20T00:08:19;100289.28;;;6.83;100.00
4346;BME280;2186;49.866;7.986;2023-12-20T00:10:45;100281.47;;;6.76;100.00
4346;BME280;2186;49.866;7.986;2023-12-20T00:13:12;100274.34;;;6.82;100.00
4346;BME280;2186;49.866;7.986;2023-12-20T00:15:38;100280.38;;;6.92;100.00
4346;BME280;2186;49.866;7.986;2023-12-20T00:18:05;100280.44;;;6.89;100.00
4346;BME280;2186;49.866;7.986;2023-12-20T00:20:31;100288.31;;;6.92;100.00
4346;BME280;2186;49.866;7.986;2023-12-20T00:22:58;100287.97;;;7.15;100.00
4346;BME280;2186;49.866;7.986;2023-12-20T00:25:24;100283.66;;;7.08;100.00
4346;BME280;2186;49.866;7.986;2023-12-20T00:27:51;100273.94;;;7.10;100.00
4346;BME280;2186;49.866;7.986;2023-12-20T00:30:18;100274.03;;;7.05;100.00
4346;BME280;2186;49.866;7.986;2023-12-20T00:32:44;100271.28;;;7.13;100.00
4346;BME280;2186;49.866;7.986;2023-12-20T00:35:13;100274.00;;;7.07;100.00
4346;BME280;2186;49.866;7.986;2023-12-20T00:37:40;100275.84;;;7.02;100.00
4346;BME280;2186;49.866;7.986;2023-12-20T00:40:07;100272.44;;;6.92;100.00
4346;BME280;2186;49.866;7.986;2023-12-20T00:42:34;100264.47;;;6.95;100.00
4346;BME280;2186;49.866;7.986;2023-12-20T00:45:02;100259.97;;;7.03;100.00
4346;BME280;2186;49.866;7.986;2023-12-20T00:47:31;100252.09;;;6.99;100.00
4346;BME280;2186;49.866;7.986;2023-12-20T00:49:58;100260.00;;;7.00;100.00
4346;BME280;2186;49.866;7.986;2023-12-20T00:52:24;100250.34;;;6.96;100.00
4346;BME280;2186;49.866;7.986;2023-12-20T00:54:51;100254.88;;;6.90;100.00
4346;BME280;2186;49.866;7.986;2023-12-20T00:57:18;100253.84;;;7.00;100.00
4346;BME280;2186;49.866;7.986;2023-12-20T00:59:44;100252.19;;;6.93;100.00
4346;BME280;2186;49.866;7.986;2023-12-20T01:02:11;100248.56;;;7.00;100.00
4346;BME280;2186;49.866;7.986;2023-12-20T01:04:37;100245.13;;;6.93;100.00
4346;BME280;2186;49.866;7.986;2023-12-20T01:07:04;100243.69;;;6.72;100.00
4346;BME280;2186;49.866;7.986;2023-12-20T01:09:30;100255.75;;;6.90;100.00
4346;BME280;2186;49.866;7.986;2023-12-20T01:11:57;100254.09;;;6.81;100.00
4346;BME280;2186;49.866;7.986;2023-12-20T01:14:23;100248.75;;;6.84;100.00
4346;BME280;2186;49.866;7.986;2023-12-20T01:16:50;100255.03;;;6.77;100.00
4346;BME280;2186;49.866;7.986;2023-12-20T01:19:16;100252.41;;;6.77;100.00
4346;BME280;2186;49.866;7.986;2023-12-20T01:21:43;100260.28;;;6.80;100.00
4346;BME280;2186;49.866;7.986;2023-12-20T01:24:09;100256.66;;;6.88;100.00
4346;BME280;2186;49.866;7.986;2023-12-20T01:26:36;100246.13;;;6.86;100.00
4346;BME280;2186;49.866;7.986;2023-12-20T01:29:02;100247.97;;;6.79;100.00
4346;BME280;2186;49.866;7.986;2023-12-20T01:31:29;100241.97;;;6.67;100.00
4346;BME280;2186;49.866;7.986;2023-12-20T01:33:55;100243.56;;;6.80;100.00
4346;BME280;2186;49.866;7.986;2023-12-20T01:36:22;100244.59;;;6.68;100.00
4346;BME280;2186;49.866;7.986;2023-12-20T01:38:48;100257.69;;;6.77;100.00
4346;BME280;2186;49.866;7.986;2023-12-20T01:41:15;100257.84;;;6.65;100.00
4346;BME280;2186;49.866;7.986;2023-12-20T01:43:42;100256.22;;;6.55;100.00
4346;BME280;2186;49.866;7.986;2023-12-20T01:46:17;100252.69;;;6.54;100.00
4346;BME280;2186;49.866;7.986;2023-12-20T01:48:43;100265.69;;;6.71;100.00
4346;BME280;2186;49.866;7.986;2023-12-20T01:51:10;100272.63;;;6.78;100.00
4346;BME280;2186;49.866;7.986;2023-12-20T01:53:38;100265.53;;;6.82;100.00
4346;BME280;2186;49.866;7.986;2023-12-20T01:56:05;100269.34;;;6.61;100.00
4346;BME280;2186;49.866;7.986;2023-12-20T01:58:32;100256.22;;;6.53;100.00
4346;BME280;2186;49.866;7.986;2023-12-20T02:00:59;100263.13;;;6.65;100.00
4346;BME280;2186;49.866;7.986;2023-12-20T02:03:26;100251.78;;;6.59;100.00
4346;BME280;2186;49.866;7.986;2023-12-20T02:05:52;100262.38;;;6.54;100.00
4346;BME280;2186;49.866;7.986;2023-12-20T02:08:19;100258.66;;;6.70;100.00
4346;BME280;2186;49.866;7.986;2023-12-20T02:10:45;100256.91;;;6.69;100.00
4346;BME280;2186;49.866;7.986;2023-12-20T02:13:12;100243.06;;;6.50;100.00
4346;BME280;2186;49.866;7.986;2023-12-20T02:15:38;100232.59;;;6.44;100.00
4346;BME280;2186;49.866;7.986;2023-12-20T02:18:06;100231.91;;;6.27;100.00
4346;BME280;2186;49.866;7.986;2023-12-20T02:20:32;100230.19;;;6.24;100.00
4346;BME280;2186;49.866;7.986;2023-12-20T02:22:59;100239.75;;;6.36;100.00
4346;BME280;2186;49.866;7.986;2023-12-20T02:25:25;100237.75;;;6.53;100.00
4346;BME280;2186;49.866;7.986;2023-12-20T02:27:52;100241.31;;;6.51;100.00
4346;BME280;2186;49.866;7.986;2023-12-20T02:30:18;100244.72;;;6.61;100.00
4346;BME280;2186;49.866;7.986;2023-12-20T02:32:45;100244.56;;;6.73;100.00
4346;BME280;2186;49.866;7.986;2023-12-20T02:35:11;100243.69;;;6.69;100.00
4346;BME280;2186;49.866;7.986;2023-12-20T02:37:38;100240.16;;;6.73;100.00
4346;BME280;2186;49.866;7.986;2023-12-20T02:40:05;100241.84;;;6.77;100.00
4346;BME280;2186;49.866;7.986;2023-12-20T02:42:31;100231.16;;;6.87;100.00
4346;BME280;2186;49.866;7.986;2023-12-20T02:44:58;100249.81;;;6.71;100.00
4346;BME280;2186;49.866;7.986;2023-12-20T02:47:24;100256.78;;;6.78;100.00
4346;BME280;2186;49.866;7.986;2023-12-20T02:49:51;100248.13;;;6.67;100.00
4346;BME280;2186;49.866;7.986;2023-12-20T02:52:19;100249.94;;;6.64;100.00
4346;BME280;2186;49.866;7.986;2023-12-20T02:54:45;100249.66;;;6.83;100.00
4346;BME280;2186;49.866;7.986;2023-12-20T02:57:12;100243.44;;;6.89;100.00
4346;BME280;2186;49.866;7.986;2023-12-20T02:59:39;100231.13;;;6.85;100.00
4346;BME280;2186;49.866;7.986;2023-12-20T03:02:05;100234.63;;;6.89;100.00
4346;BME280;2186;49.866;7.986;2023-12-20T03:04:32;100255.66;;;6.96;100.00
4346;BME280;2186;49.866;7.986;2023-12-20T03:06:59;100259.31;;;6.84;100.00
4346;BME280;2186;49.866;7.986;2023-12-20T03:09:25;100266.28;;;6.92;100.00
4346;BME280;2186;49.866;7.986;2023-12-20T03:11:52;100262.00;;;6.83;100.00
4346;BME280;2186;49.866;7.986;2023-12-20T03:14:18;100266.38;;;6.84;100.00
4346;BME280;2186;49.866;7.986;2023-12-20T03:16:51;100276.84;;;6.93;100.00
4346;BME280;2186;49.866;7.986;2023-12-20T03:19:18;100276.91;;;6.89;100.00
4346;BME280;2186;49.866;7.986;2023-12-20T03:21:45;100270.72;;;6.90;100.00
4346;BME280;2186;49.866;7.986;2023-12-20T03:24:12;100276.03;;;6.88;100.00
4346;BME280;2186;49.866;7.986;2023-12-20T03:26:38;100283.25;;;6.75;100.00
4346;BME280;2186;49.866;7.986;2023-12-20T03:29:05;100270.97;;;6.73;100.00
4346;BME280;2186;49.866;7.986;2023-12-20T03:31:31;100278.00;;;6.72;100.00
4346;BME280;2186;49.866;7.986;2023-12-20T03:33:58;100277.16;;;6.69;100.00
4346;BME280;2186;49.866;7.986;2023-12-20T03:36:24;100285.81;;;6.80;100.00
4346;BME280;2186;49.866;7.986;2023-12-20T03:38:51;100282.41;;;6.73;100.00
4346;BME280;2186;49.866;7.986;2023-12-20T03:41:17;100289.19;;;6.91;100.00
4346;BME280;2186;49.866;7.986;2023-12-20T03:43:44;100288.34;;;6.89;100.00
4346;BME280;2186;49.866;7.986;2023-12-20T03:46:10;100285.56;;;6.98;100.00
4346;BME280;2186;49.866;7.986;2023-12-20T03:48:36;100282.81;;;7.06;100.00
4346;BME280;2186;49.866;7.986;2023-12-20T03:51:03;100293.34;;;7.09;100.00
4346;BME280;2186;49.866;7.986;2023-12-20T03:53:29;100275.66;;;7.14;100.00
4346;BME280;2186;49.866;7.986;2023-12-20T03:55:56;100281.81;;;7.15;100.00
4346;BME280;2186;49.866;7.986;2023-12-20T03:58:22;100282.56;;;7.23;100.00
4346;BME280;2186;49.866;7.986;2023-12-20T04:00:49;100287.03;;;7.19;100.00
4346;BME280;2186;49.866;7.986;2023-12-20T04:03:15;100286.16;;;7.19;100.00
4346;BME280;2186;49.866;7.986;2023-12-20T04:05:42;100295.06;;;7.13;100.00
4346;BME280;2186;49.866;7.986;2023-12-20T04:08:09;100286.09;;;7.22;100.00
4346;BME280;2186;49.866;7.986;2023-12-20T04:10:36;100293.28;;;7.12;100.00
4346;BME280;2186;49.866;7.986;2023-12-20T04:13:03;100288.00;;;7.12;100.00
4346;BME280;2186;49.866;7.986;2023-12-20T04:15:30;100298.59;;;7.10;100.00
4346;BME280;2186;49.866;7.986;2023-12-20T04:17:56;100303.16;;;7.02;100.00
4346;BME280;2186;49.866;7.986;2023-12-20T04:20:23;100316.22;;;7.10;100.00
4346;BME280;2186;49.866;7.986;2023-12-20T04:22:49;100314.38;;;7.17;100.00
4346;BME280;2186;49.866;7.986;2023-12-20T04:25:16;100313.47;;;7.19;100.00
4346;BME280;2186;49.866;7.986;2023-12-20T04:27:42;100322.09;;;7.32;100.00
4346;BME280;2186;49.866;7.986;2023-12-20T04:30:09;100316.81;;;7.32;100.00
4346;BME280;2186;49.866;7.986;2023-12-20T04:32:36;100324.66;;;7.36;100.00
4346;BME280;2186;49.866;7.986;2023-12-20T04:35:03;100328.13;;;7.40;100.00
4346;BME280;2186;49.866;7.986;2023-12-20T04:37:29;100342.19;;;7.43;100.00
4346;BME280;2186;49.866;7.986;2023-12-20T04:39:56;100338.50;;;7.55;100.00
4346;BME280;2186;49.866;7.986;2023-12-20T04:42:22;100348.06;;;7.62;100.00
4346;BME280;2186;49.866;7.986;2023-12-20T04:44:48;100356.88;;;7.63;100.00
4346;BME280;2186;49.866;7.986;2023-12-20T04:47:15;100361.41;;;7.53;98.98
4346;BME280;2186;49.866;7.986;2023-12-20T04:49:41;100372.09;;;7.49;97.34
4346;BME280;2186;49.866;7.986;2023-12-20T04:52:08;100368.59;;;7.47;95.73
4346;BME280;2186;49.866;7.986;2023-12-20T04:54:34;100373.78;;;7.54;94.01
4346;BME280;2186;49.866;7.986;2023-12-20T04:57:01;100393.16;;;7.53;93.27
4346;BME280;2186;49.866;7.986;2023-12-20T04:59:27;100391.19;;;7.67;92.53
4346;BME280;2186;49.866;7.986;2023-12-20T05:01:53;100385.56;;;7.30;93.03
4346;BME280;2186;49.866;7.986;2023-12-20T05:04:20;100373.97;;;7.39;91.55
4346;BME280;2186;49.866;7.986;2023-12-20T05:06:47;100379.41;;;7.30;91.37
4346;BME280;2186;49.866;7.986;2023-12-20T05:09:14;100375.03;;;7.29;92.03
4346;BME280;2186;49.866;7.986;2023-12-20T05:11:40;100379.63;;;7.15;92.81
4346;BME280;2186;49.866;7.986;2023-12-20T05:14:06;100383.22;;;7.07;93.64
4346;BME280;2186;49.866;7.986;2023-12-20T05:16:33;100389.50;;;7.00;93.96
4346;BME280;2186;49.866;7.986;2023-12-20T05:19:00;100386.72;;;7.09;94.68
4346;BME280;2186;49.866;7.986;2023-12-20T05:21:28;100389.44;;;7.05;94.57
4346;BME280;2186;49.866;7.986;2023-12-20T05:23:54;100389.44;;;7.03;93.86
4346;BME280;2186;49.866;7.986;2023-12-20T05:26:21;100383.34;;;6.97;93.51
4346;BME280;2186;49.866;7.986;2023-12-20T05:28:47;100384.19;;;7.02;95.10
4346;BME280;2186;49.866;7.986;2023-12-20T05:31:14;100382.56;;;6.92;94.11
4346;BME280;2186;49.866;7.986;2023-12-20T05:33:40;100377.16;;;6.98;94.59
4346;BME280;2186;49.866;7.986;2023-12-20T05:36:07;100382.47;;;6.96;94.13
4346;BME280;2186;49.866;7.986;2023-12-20T05:38:37;100383.28;;;7.03;93.71
4346;BME280;2186;49.866;7.986;2023-12-20T05:41:04;100371.00;;;6.99;93.88
4346;BME280;2186;49.866;7.986;2023-12-20T05:43:30;100378.94;;;6.97;93.81
4346;BME280;2186;49.866;7.986;2023-12-20T05:45:56;100376.25;;;7.03;93.14
4346;BME280;2186;49.866;7.986;2023-12-20T05:48:24;100385.16;;;6.93;94.51
4346;BME280;2186;49.866;7.986;2023-12-20T05:50:50;100388.44;;;7.15;93.86
4346;BME280;2186;49.866;7.986;2023-12-20T05:53:17;100379.94;;;6.89;93.99
4346;BME280;2186;49.866;7.986;2023-12-20T05:55:43;100378.75;;;7.11;93.54
4346;BME280;2186;49.866;7.986;2023-12-20T05:58:10;100379.84;;;6.95;93.84
4346;BME280;2186;49.866;7.986;2023-12-20T06:00:36;100382.59;;;6.89;94.65
4346;BME280;2186;49.866;7.986;2023-12-20T06:03:03;100384.22;;;6.97;94.25
4346;BME280;2186;49.866;7.986;2023-12-20T06:05:31;100385.22;;;6.89;94.32
4346;BME280;2186;49.866;7.986;2023-12-20T06:07:57;100388.06;;;6.70;95.50
4346;BME280;2186;49.866;7.986;2023-12-20T06:10:27;100398.75;;;6.61;94.84
4346;BME280;2186;49.866;7.986;2023-12-20T06:12:54;100397.75;;;6.73;95.35
4346;BME280;2186;49.866;7.986;2023-12-20T06:15:21;100410.91;;;6.76;94.83
4346;BME280;2186;49.866;7.986;2023-12-20T06:17:48;100416.31;;;6.64;94.08
4346;BME280;2186;49.866;7.986;2023-12-20T06:20:15;100418.91;;;6.68;94.20
4346;BME280;2186;49.866;7.986;2023-12-20T06:22:42;100413.78;;;6.53;94.42
4346;BME280;2186;49.866;7.986;2023-12-20T06:25:08;100416.13;;;6.80;93.77
4346;BME280;2186;49.866;7.986;2023-12-20T06:27:35;100414.69;;;6.52;94.67
4346;BME280;2186;49.866;7.986;2023-12-20T06:30:02;100418.84;;;6.76;94.46
4346;BME280;2186;49.866;7.986;2023-12-20T06:32:28;100407.59;;;6.57;93.82
4346;BME280;2186;49.866;7.986;2023-12-20T06:34:55;100415.50;;;6.59;95.53
4346;BME280;2186;49.866;7.986;2023-12-20T06:37:22;100419.78;;;6.69;94.80
4346;BME280;2186;49.866;7.986;2023-12-20T06:39:48;100419.06;;;6.53;95.15
4346;BME280;2186;49.866;7.986;2023-12-20T06:42:15;100412.03;;;6.53;94.63
4346;BME280;2186;49.866;7.986;2023-12-20T06:44:41;100409.19;;;6.73;94.68
4346;BME280;2186;49.866;7.986;2023-12-20T06:47:08;100406.66;;;6.63;94.68
4346;BME280;2186;49.866;7.986;2023-12-20T06:49:34;100410.19;;;6.63;95.05
4346;BME280;2186;49.866;7.986;2023-12-20T06:52:01;100418.13;;;6.60;94.99
4346;BME280;2186;49.866;7.986;2023-12-20T06:54:27;100415.53;;;6.56;94.33
4346;BME280;2186;49.866;7.986;2023-12-20T06:56:54;100407.72;;;6.46;94.54
4346;BME280;2186;49.866;7.986;2023-12-20T06:59:20;100413.78;;;6.53;94.58
4346;BME280;2186;49.866;7.986;2023-12-20T07:01:50;100413.78;;;6.54;95.05
4346;BME280;2186;49.866;7.986;2023-12-20T07:04:18;100407.72;;;6.46;94.48
4346;BME280;2186;49.866;7.986;2023-12-20T07:06:48;100419.25;;;6.36;95.33
4346;BME280;2186;49.866;7.986;2023-12-20T07:09:17;100423.53;;;6.49;95.06
4346;BME280;2186;49.866;7.986;2023-12-20T07:11:44;100427.25;;;6.26;95.34
4346;BME280;2186;49.866;7.986;2023-12-20T07:14:10;100426.25;;;6.39;95.53
4346;BME280;2186;49.866;7.986;2023-12-20T07:16:36;100432.47;;;6.30;95.49
4346;BME280;2186;49.866;7.986;2023-12-20T07:19:03;100442.91;;;6.47;94.97
4346;BME280;2186;49.866;7.986;2023-12-20T07:21:29;100433.38;;;6.31;94.99
4346;BME280;2186;49.866;7.986;2023-12-20T07:23:56;100443.81;;;6.41;95.46
4346;BME280;2186;49.866;7.986;2023-12-20T07:26:22;100441.28;;;6.32;95.68
4346;BME280;2186;49.866;7.986;2023-12-20T07:28:49;100456.25;;;6.30;95.22
4346;BME280;2186;49.866;7.986;2023-12-20T07:31:16;100458.06;;;6.25;95.43
4346;BME280;2186;49.866;7.986;2023-12-20T07:33:43;100449.31;;;6.20;95.20
4346;BME280;2186;49.866;7.986;2023-12-20T07:36:09;100456.47;;;6.04;95.91
4346;BME280;2186;49.866;7.986;2023-12-20T07:38:36;100454.66;;;6.11;95.18
4346;BME280;2186;49.866;7.986;2023-12-20T07:41:02;100455.53;;;6.11;95.32
4346;BME280;2186;49.866;7.986;2023-12-20T07:43:29;100456.53;;;5.89;95.59
4346;BME280;2186;49.866;7.986;2023-12-20T07:45:55;100469.78;;;5.80;96.30
4346;BME280;2186;49.866;7.986;2023-12-20T07:48:22;100474.19;;;5.81;97.36
4346;BME280;2186;49.866;7.986;2023-12-20T07:50:48;100475.88;;;5.88;95.98
4346;BME280;2186;49.866;7.986;2023-12-20T07:53:15;100471.50;;;5.87;96.47
4346;BME280;2186;49.866;7.986;2023-12-20T07:55:41;100467.06;;;5.89;96.41
4346;BME280;2186;49.866;7.986;2023-12-20T07:58:09;100472.38;;;5.95;96.84
4346;BME280;2186;49.866;7.986;2023-12-20T08:00:35;100481.16;;;5.94;96.35
4346;BME280;2186;49.866;7.986;2023-12-20T08:03:02;100478.50;;;5.99;96.74
4346;BME280;2186;49.866;7.986;2023-12-20T08:05:29;100475.88;;;5.94;96.42
4346;BME280;2186;49.866;7.986;2023-12-20T08:07:56;100473.16;;;6.06;96.90
4346;BME280;2186;49.866;7.986;2023-12-20T08:10:22;100467.69;;;6.29;97.11
4346;BME280;2186;49.866;7.986;2023-12-20T08:12:49;100473.00;;;6.24;96.49
4346;BME280;2186;49.866;7.986;2023-12-20T08:15:15;100475.59;;;6.32;96.58
4346;BME280;2186;49.866;7.986;2023-12-20T08:17:42;100483.34;;;6.52;95.58
4346;BME280;2186;49.866;7.986;2023-12-20T08:20:09;100477.94;;;6.66;95.87
4346;BME280;2186;49.866;7.986;2023-12-20T08:22:35;100475.25;;;6.72;96.80
4346;BME280;2186;49.866;7.986;2023-12-20T08:25:02;100480.63;;;6.61;96.54
4346;BME280;2186;49.866;7.986;2023-12-20T08:27:29;100485.81;;;6.72;96.30
4346;BME280;2186;49.866;7.986;2023-12-20T08:29:58;100477.91;;;6.67;96.94
4346;BME280;2186;49.866;7.986;2023-12-20T08:32:27;100487.63;;;6.64;96.54
4346;BME280;2186;49.866;7.986;2023-12-20T08:34:53;100493.72;;;6.73;97.01
4346;BME280;2186;49.866;7.986;2023-12-20T08:37:20;100484.63;;;7.00;95.53
4346;BME280;2186;49.866;7.986;2023-12-20T08:39:47;100477.72;;;6.89;95.81
4346;BME280;2186;49.866;7.986;2023-12-20T08:42:13;100473.19;;;6.97;96.08
4346;BME280;2186;49.866;7.986;2023-12-20T08:44:40;100484.56;;;7.05;95.71
4346;BME280;2186;49.866;7.986;2023-12-20T08:47:06;100474.91;;;7.02;95.94
4346;BME280;2186;49.866;7.986;2023-12-20T08:49:33;100487.13;;;7.14;96.09
4346;BME280;2186;49.866;7.986;2023-12-20T08:52:00;100493.25;;;7.18;95.48
4346;BME280;2186;49.866;7.986;2023-12-20T08:54:26;100501.16;;;7.18;95.97
4346;BME280;2186;49.866;7.986;2023-12-20T08:56:53;100501.94;;;7.29;95.79
4346;BME280;2186;49.866;7.986;2023-12-20T08:59:19;100498.50;;;7.19;96.00
4346;BME280;2186;49.866;7.986;2023-12-20T09:01:45;100498.13;;;7.50;95.30
4346;BME280;2186;49.866;7.986;2023-12-20T09:04:14;100495.44;;;7.56;94.64
4346;BME280;2186;49.866;7.986;2023-12-20T09:06:40;100492.09;;;7.41;96.01
4346;BME280;2186;49.866;7.986;2023-12-20T09:09:07;100491.34;;;7.30;95.66
4346;BME280;2186;49.866;7.986;2023-12-20T09:11:36;100500.66;;;7.60;95.78
4346;BME280;2186;49.866;7.986;2023-12-20T09:14:03;100504.56;;;7.30;95.32
4346;BME280;2186;49.866;7.986;2023-12-20T09:16:29;100502.63;;;7.43;95.97
4346;BME280;2186;49.866;7.986;2023-12-20T09:18:57;100501.47;;;7.64;95.16
4346;BME280;2186;49.866;7.986;2023-12-20T09:21:24;100504.22;;;7.58;94.38
4346;BME280;2186;49.866;7.986;2023-12-20T09:23:51;100504.25;;;7.55;95.91
4346;BME280;2186;49.866;7.986;2023-12-20T09:26:17;100497.31;;;7.46;95.39
4346;BME280;2186;49.866;7.986;2023-12-20T09:28:45;100490.88;;;7.64;95.28
4346;BME280;2186;49.866;7.986;2023-12-20T09:31:11;100490.09;;;7.57;95.69
4346;BME280;2186;49.866;7.986;2023-12-20T09:33:38;100495.22;;;7.71;95.33
4346;BME280;2186;49.866;7.986;2023-12-20T09:36:05;100494.56;;;7.52;94.90
4346;BME280;2186;49.866;7.986;2023-12-20T09:38:32;100502.22;;;7.73;95.52
4346;BME280;2186;49.866;7.986;2023-12-20T09:40:58;100501.53;;;7.61;95.26
4346;BME280;2186;49.866;7.986;2023-12-20T09:43:24;100501.53;;;7.59;95.69
4346;BME280;2186;49.866;7.986;2023-12-20T09:46:00;100501.25;;;7.82;94.53
4346;BME280;2186;49.866;7.986;2023-12-20T09:48:28;100508.25;;;7.85;94.87
4346;BME280;2186;49.866;7.986;2023-12-20T09:50:56;100509.38;;;7.65;94.83
4346;BME280;2186;49.866;7.986;2023-12-20T09:53:24;100504.78;;;7.81;95.38
4346;BME280;2186;49.866;7.986;2023-12-20T09:55:58;100492.28;;;7.91;94.88
4346;BME280;2186;49.866;7.986;2023-12-20T09:58:26;100488.72;;;7.95;94.24
4346;BME280;2186;49.866;7.986;2023-12-20T10:00:53;100490.09;;;8.19;93.63
4346;BME280;2186;49.866;7.986;2023-12-20T10:03:24;100501.66;;;8.13;92.77
4346;BME280;2186;49.866;7.986;2023-12-20T10:05:56;100517.16;;;8.41;92.48
4346;BME280;2186;49.866;7.986;2023-12-20T10:08:24;100518.06;;;8.40;92.35
4346;BME280;2186;49.866;7.986;2023-12-20T10:10:51;100513.06;;;8.17;92.99
4346;BME280;2186;49.866;7.986;2023-12-20T10:13:18;100514.53;;;8.39;92.51
4346;BME280;2186;49.866;7.986;2023-12-20T10:15:44;100510.06;;;8.43;91.91
4346;BME280;2186;49.866;7.986;2023-12-20T10:18:12;100500.97;;;8.00;93.21
4346;BME280;2186;49.866;7.986;2023-12-20T10:20:40;100503.38;;;8.16;93.04
4346;BME280;2186;49.866;7.986;2023-12-20T10:23:07;100499.03;;;8.12;92.38
4346;BME280;2186;49.866;7.986;2023-12-20T10:25:34;100493.78;;;8.10;93.19
4346;BME280;2186;49.866;7.986;2023-12-20T10:30:36;100492.03;;;8.09;92.48
4346;BME280;2186;49.866;7.986;2023-12-20T10:33:05;100473.63;;;8.00;91.94
4346;BME280;2186;49.866;7.986;2023-12-20T10:35:32;100471.91;;;7.97;92.39
4346;BME280;2186;49.866;7.986;2023-12-20T10:38:03;100472.56;;;8.12;92.96
4346;BME280;2186;49.866;7.986;2023-12-20T10:40:30;100473.41;;;8.14;92.11
4346;BME280;2186;49.866;7.986;2023-12-20T10:42:58;100465.16;;;8.32;91.64
4346;BME280;2186;49.866;7.986;2023-12-20T10:45:24;100459.84;;;8.35;91.34
4346;BME280;2186;49.866;7.986;2023-12-20T10:47:52;100456.19;;;8.42;91.92
4346;BME280;2186;49.866;7.986;2023-12-20T10:50:19;100457.19;;;8.35;91.51
4346;BME280;2186;49.866;7.986;2023-12-20T10:52:47;100453.69;;;8.31;92.24
4346;BME280;2186;49.866;7.986;2023-12-20T10:55:13;100454.50;;;8.38;92.18
4346;BME280;2186;49.866;7.986;2023-12-20T10:57:41;100450.75;;;8.51;91.99
4346;BME280;2186;49.866;7.986;2023-12-20T11:00:13;100454.34;;;8.47;90.67
4346;BME280;2186;49.866;7.986;2023-12-20T11:02:41;100443.94;;;8.37;90.65
4346;BME280;2186;49.866;7.986;2023-12-20T11:08:10;100458.53;;;8.60;89.40
4346;BME280;2186;49.866;7.986;2023-12-20T11:11:02;100455.88;;;8.60;88.81
4346;BME280;2186;49.866;7.986;2023-12-20T11:13:36;100446.97;;;8.63;88.40
4346;BME280;2186;49.866;7.986;2023-12-20T11:16:06;100439.41;;;8.43;86.06
4346;BME280;2186;49.866;7.986;2023-12-20T11:18:34;100443.94;;;8.37;86.39
4346;BME280;2186;49.866;7.986;2023-12-20T11:21:10;100443.91;;;8.40;86.26
4346;BME280;2186;49.866;7.986;2023-12-20T11:23:37;100444.88;;;8.31;86.19
4346;BME280;2186;49.866;7.986;2023-12-20T11:26:03;100443.94;;;8.35;86.38
4346;BME280;2186;49.866;7.986;2023-12-20T11:28:30;100458.81;;;8.44;87.05
4346;BME280;2186;49.866;7.986;2023-12-20T11:30:58;100462.91;;;8.61;87.13
4346;BME280;2186;49.866;7.986;2023-12-20T11:33:35;100446.94;;;8.68;87.11
4346;BME280;2186;49.866;7.986;2023-12-20T11:36:02;100459.50;;;8.56;86.84
4346;BME280;2186;49.866;7.986;2023-12-20T11:38:38;100453.63;;;8.87;86.56
4346;BME280;2186;49.866;7.986;2023-12-20T11:41:06;100459.72;;;8.90;85.16
4346;BME280;2186;49.866;7.986;2023-12-20T11:43:36;100448.75;;;8.64;83.54
4346;BME280;2186;49.866;7.986;2023-12-20T11:46:04;100444.31;;;8.66;83.69
4346;BME280;2186;49.866;7.986;2023-12-20T11:48:33;100450.97;;;8.39;83.93
4346;BME280;2186;49.866;7.986;2023-12-20T11:51:00;100447.31;;;8.45;84.71
4346;BME280;2186;49.866;7.986;2023-12-20T11:53:27;100455.22;;;8.48;84.65
4346;BME280;2186;49.866;7.986;2023-12-20T11:55:54;100441.03;;;8.52;84.42
4346;BME280;2186;49.866;7.986;2023-12-20T11:58:20;100435.75;;;8.49;84.87
4346;BME280;2186;49.866;7.986;2023-12-20T12:00:49;100431.13;;;8.61;85.31
4346;BME280;2186;49.866;7.986;2023-12-20T12:03:16;100440.59;;;8.75;85.37
4346;BME280;2186;49.866;7.986;2023-12-20T12:05:43;100436.63;;;8.51;85.79
4346;BME280;2186;49.866;7.986;2023-12-20T12:08:09;100425.91;;;8.57;85.84
4346;BME280;2186;49.866;7.986;2023-12-20T12:10:36;100425.78;;;8.65;84.96
4346;BME280;2186;49.866;7.986;2023-12-20T12:13:03;100425.78;;;8.65;84.67
4346;BME280;2186;49.866;7.986;2023-12-20T12:15:29;100417.47;;;8.83;84.70
4346;BME280;2186;49.866;7.986;2023-12-20T12:17:57;100414.94;;;8.78;84.56
4346;BME280;2186;49.866;7.986;2023-12-20T12:20:24;100417.56;;;8.78;84.83
4346;BME280;2186;49.866;7.986;2023-12-20T12:23:00;100417.91;;;9.06;84.51
4346;BME280;2186;49.866;7.986;2023-12-20T12:25:29;100408.91;;;9.13;83.92
4346;BME280;2186;49.866;7.986;2023-12-20T12:27:57;100411.34;;;9.24;84.54
4346;BME280;2186;49.866;7.986;2023-12-20T12:30:24;100415.19;;;9.09;84.33
4346;BME280;2186;49.866;7.986;2023-12-20T12:32:55;100410.78;;;9.08;84.48
4346;BME280;2186;49.866;7.986;2023-12-20T12:35:22;100410.56;;;9.19;84.69
4346;BME280;2186;49.866;7.986;2023-12-20T12:37:48;100410.16;;;8.96;84.75
4346;BME280;2186;49.866;7.986;2023-12-20T12:40:16;100413.81;;;8.88;85.29
4346;BME280;2186;49.866;7.986;2023-12-20T12:42:44;100403.22;;;8.88;85.37
4346;BME280;2186;49.866;7.986;2023-12-20T12:45:11;100401.84;;;8.69;86.07
4346;BME280;2186;49.866;7.986;2023-12-20T12:47:38;100397.28;;;8.77;85.91
4346;BME280;2186;49.866;7.986;2023-12-20T12:50:05;100396.28;;;8.83;86.27
4346;BME280;2186;49.866;7.986;2023-12-20T12:52:32;100391.59;;;8.96;86.03
4346;BME280;2186;49.866;7.986;2023-12-20T12:54:59;100365.69;;;9.10;85.49
4346;BME280;2186;49.866;7.986;2023-12-20T12:57:25;100373.44;;;9.19;84.95
4346;BME280;2186;49.866;7.986;2023-12-20T12:59:52;100364.00;;;9.44;84.44
4346;BME280;2186;49.866;7.986;2023-12-20T13:02:19;100357.50;;;9.58;84.25
4346;BME280;2186;49.866;7.986;2023-12-20T13:04:45;100364.63;;;9.56;83.98
4346;BME280;2186;49.866;7.986;2023-12-20T13:07:12;100354.19;;;9.85;82.92
4346;BME280;2186;49.866;7.986;2023-12-20T13:09:39;100345.53;;;9.78;83.02
4346;BME280;2186;49.866;7.986;2023-12-20T13:12:06;100336.47;;;9.50;83.30
4346;BME280;2186;49.866;7.986;2023-12-20T13:14:34;100329.47;;;9.47;82.88
4346;BME280;2186;49.866;7.986;2023-12-20T13:17:04;100322.81;;;9.67;82.35
4346;BME280;2186;49.866;7.986;2023-12-20T13:19:30;100331.44;;;9.76;82.78
4346;BME280;2186;49.866;7.986;2023-12-20T13:21:57;100312.22;;;9.65;82.90